createdAt,value
2018-12-21T00:00:15.134Z,69.9
2018-12-21T00:03:15.705Z,69.6
2018-12-21T00:06:15.410Z,69.7
2018-12-21T00:09:15.040Z,69.6
2018-12-21T00:12:15.510Z,69.5
2018-12-21T00:15:15.118Z,69.6
2018-12-21T00:18:15.668Z,69.8
2018-12-21T00:21:21.795Z,69.7
2018-12-21T00:24:15.809Z,69.7
2018-12-21T00:27:15.530Z,69.6
2018-12-21T00:30:15.168Z,69.7
2018-12-21T00:33:14.937Z,69.8
2018-12-21T00:36:15.549Z,69.9
2018-12-21T00:39:15.339Z,70.0
2018-12-21T00:42:15.594Z,69.9
2018-12-21T00:45:15.257Z,69.8
2018-12-21T00:48:15.664Z,69.8
2018-12-21T00:51:15.427Z,69.7
2018-12-21T00:54:14.987Z,69.7
2018-12-21T00:57:15.782Z,69.5
2018-12-21T01:00:15.510Z,69.3
2018-12-21T01:03:15.883Z,69.3
2018-12-21T01:06:15.600Z,69.2
2018-12-21T01:09:15.075Z,69.1
2018-12-21T01:12:15.491Z,69.0
2018-12-21T01:15:15.116Z,69.0
2018-12-21T01:18:15.115Z,68.5
2018-12-21T01:21:15.033Z,68.7
2018-12-21T01:24:15.075Z,68.7
2018-12-21T01:27:15.714Z,68.6
2018-12-21T01:30:15.277Z,68.5
2018-12-21T01:33:15.891Z,68.5
2018-12-21T01:36:15.549Z,68.4
2018-12-21T01:39:15.152Z,68.4
2018-12-21T01:42:15.772Z,68.4
2018-12-21T01:45:15.542Z,68.3
2018-12-21T01:48:15.375Z,68.2
2018-12-21T01:51:15.005Z,68.2
2018-12-21T01:54:15.613Z,68.2
2018-12-21T01:57:15.178Z,68.4
2018-12-21T02:00:15.750Z,68.2
2018-12-21T02:03:15.362Z,68.2
2018-12-21T02:06:15.044Z,68.0
2018-12-21T02:09:15.698Z,67.9
2018-12-21T02:12:15.156Z,67.7
2018-12-21T02:15:15.680Z,67.7
2018-12-21T02:18:15.257Z,67.7
2018-12-21T02:21:15.733Z,67.8
2018-12-21T02:24:15.256Z,67.7
2018-12-21T02:27:14.919Z,67.5
2018-12-21T02:30:15.529Z,67.4
2018-12-21T02:33:15.239Z,67.3
2018-12-21T02:36:15.917Z,67.2
2018-12-21T02:39:15.606Z,67.4
2018-12-21T02:42:15.592Z,67.4
2018-12-21T02:45:15.213Z,67.2
2018-12-21T02:48:14.947Z,67.3
2018-12-21T02:51:14.919Z,67.4
2018-12-21T02:54:15.955Z,67.4
2018-12-21T02:57:15.677Z,67.5
2018-12-21T03:00:15.305Z,67.5
2018-12-21T03:03:15.148Z,67.3
2018-12-21T03:06:14.950Z,67.6
2018-12-21T03:09:15.837Z,67.5
2018-12-21T03:12:15.714Z,67.5
2018-12-21T03:15:16.053Z,67.2
2018-12-21T03:18:14.913Z,67.6
2018-12-21T03:21:15.918Z,67.5
2018-12-21T03:24:14.843Z,67.6
2018-12-21T03:27:15.823Z,67.4
2018-12-21T03:30:15.794Z,67.6
2018-12-21T03:33:15.292Z,67.5
2018-12-21T03:36:15.818Z,67.5
2018-12-21T03:39:15.508Z,67.5
2018-12-21T03:42:15.194Z,67.5
2018-12-21T03:45:15.809Z,67.3
2018-12-21T03:48:15.348Z,67.5
2018-12-21T03:51:15.029Z,67.2
2018-12-21T03:54:15.646Z,67.4
2018-12-21T03:57:15.264Z,67.5
2018-12-21T04:00:15.773Z,67.4
2018-12-21T04:03:15.439Z,66.9
2018-12-21T04:06:15.275Z,67.1
2018-12-21T04:09:15.963Z,67.1
2018-12-21T04:12:15.854Z,67.1
2018-12-21T04:15:15.510Z,67.2
2018-12-21T04:18:15.311Z,67.2
2018-12-21T04:21:15.974Z,67.1
2018-12-21T04:24:15.417Z,66.8
2018-12-21T04:27:15.255Z,66.8
2018-12-21T04:30:15.415Z,66.7
2018-12-21T04:33:15.131Z,66.9
2018-12-21T04:36:15.780Z,66.9
2018-12-21T04:39:15.520Z,66.9
2018-12-21T04:42:15.529Z,67.0
2018-12-21T04:45:15.104Z,66.9
2018-12-21T04:48:15.722Z,67.0
2018-12-21T04:51:15.416Z,67.0
2018-12-21T04:54:15.111Z,66.9
2018-12-21T04:57:15.801Z,67.0
2018-12-21T05:00:15.285Z,67.1
2018-12-21T05:03:15.007Z,67.6
2018-12-21T05:06:15.584Z,68.1
2018-12-21T05:09:15.386Z,68.6
2018-12-21T05:12:15.050Z,69.1
2018-12-21T05:15:15.694Z,69.9
2018-12-21T05:18:15.223Z,70.8
2018-12-21T05:21:15.849Z,71.0
2018-12-21T05:24:15.532Z,71.6
2018-12-21T05:27:15.445Z,72.9
2018-12-21T05:30:14.971Z,73.8
2018-12-21T05:33:15.530Z,73.6
2018-12-21T05:36:15.140Z,74.6
2018-12-21T05:39:14.961Z,75.5
2018-12-21T05:42:15.532Z,74.8
2018-12-21T05:45:15.262Z,75.4
2018-12-21T05:48:15.752Z,75.3
2018-12-21T05:51:15.615Z,75.0
2018-12-21T05:54:15.464Z,75.0
2018-12-21T05:57:15.147Z,75.8
2018-12-21T06:00:15.926Z,75.8
2018-12-21T06:03:15.590Z,75.7
2018-12-21T06:06:15.191Z,75.7
2018-12-21T06:09:15.719Z,76.0
2018-12-21T06:12:15.369Z,76.8
2018-12-21T06:15:15.107Z,77.1
2018-12-21T06:18:14.986Z,77.2
2018-12-21T06:21:15.851Z,76.9
2018-12-21T06:24:15.638Z,77.6
2018-12-21T06:27:15.386Z,77.9
2018-12-21T06:30:15.266Z,78.1
2018-12-21T06:33:15.976Z,78.3
2018-12-21T06:36:15.863Z,77.2
2018-12-21T06:39:15.744Z,77.1
2018-12-21T06:42:15.458Z,76.8
2018-12-21T06:45:15.262Z,76.2
2018-12-21T06:51:15.297Z,77.1
2018-12-21T06:54:15.399Z,77.2
2018-12-21T06:57:15.486Z,77.9
2018-12-21T07:00:15.416Z,76.9
2018-12-21T07:03:17.249Z,76.9
2018-12-21T07:06:15.560Z,76.9
2018-12-21T07:09:15.449Z,75.8
2018-12-21T07:12:15.376Z,76.6
2018-12-21T07:15:15.233Z,76.4
2018-12-21T07:18:15.419Z,77.4
2018-12-21T07:21:15.449Z,77.0
2018-12-21T07:24:15.168Z,77.6
2018-12-21T07:27:15.048Z,77.1
2018-12-21T07:30:15.067Z,77.1
2018-12-21T07:33:15.090Z,77.7
2018-12-21T07:36:16.058Z,77.7
2018-12-21T07:39:15.073Z,77.4
2018-12-21T07:45:15.119Z,77.7
2018-12-21T07:48:14.984Z,77.6
2018-12-21T07:51:15.694Z,77.1
2018-12-21T07:54:15.424Z,77.5
2018-12-21T07:57:15.342Z,77.1
2018-12-21T08:00:15.070Z,77.3
2018-12-21T08:06:14.997Z,77.4
2018-12-21T08:09:15.873Z,77.2
2018-12-21T08:12:15.415Z,77.2
2018-12-21T08:15:15.020Z,77.1
2018-12-21T08:18:15.976Z,77.0
2018-12-21T08:21:15.304Z,77.1
2018-12-21T08:24:15.149Z,77.3
2018-12-21T08:27:15.047Z,77.5
2018-12-21T08:30:15.744Z,77.7
2018-12-21T08:33:15.424Z,77.5
2018-12-21T08:36:14.995Z,77.1
2018-12-21T08:39:15.664Z,77.3
2018-12-21T08:42:15.379Z,77.5
2018-12-21T08:45:15.092Z,77.3
2018-12-21T08:48:15.674Z,77.2
2018-12-21T08:51:15.362Z,77.2
2018-12-21T08:54:15.243Z,77.2
2018-12-21T08:57:15.215Z,77.2
2018-12-21T09:00:16.070Z,77.2
2018-12-21T09:03:15.100Z,76.7
2018-12-21T09:06:18.531Z,77.0
2018-12-21T09:09:15.480Z,77.1
2018-12-21T09:12:15.170Z,77.2
2018-12-21T09:15:15.068Z,77.0
2018-12-21T09:18:15.112Z,77.2
2018-12-21T09:21:15.851Z,76.9
2018-12-21T09:24:15.466Z,76.8
2018-12-21T09:27:15.215Z,76.9
2018-12-21T09:30:15.997Z,77.1
2018-12-21T09:33:15.840Z,77.0
2018-12-21T09:36:15.586Z,76.9
2018-12-21T09:39:15.512Z,77.1
2018-12-21T09:42:15.274Z,77.0
2018-12-21T09:45:15.237Z,77.1
2018-12-21T09:48:15.143Z,77.6
2018-12-21T09:51:16.040Z,77.4
2018-12-21T09:54:16.026Z,76.8
2018-12-21T09:57:15.786Z,76.8
2018-12-21T10:00:15.474Z,77.3
2018-12-21T10:03:15.145Z,77.3
2018-12-21T10:06:15.817Z,76.7
2018-12-21T10:09:15.071Z,76.0
2018-12-21T10:12:15.916Z,75.9
2018-12-21T10:15:15.757Z,75.5
2018-12-21T10:18:15.477Z,75.7
2018-12-21T10:21:15.193Z,75.1
2018-12-21T10:24:20.001Z,75.4
2018-12-21T10:27:15.834Z,75.5
2018-12-21T10:30:15.397Z,75.5
2018-12-21T10:33:15.552Z,75.3
2018-12-21T10:36:15.251Z,75.2
2018-12-21T10:39:15.195Z,75.0
2018-12-21T10:42:15.187Z,74.8
2018-12-21T10:45:15.166Z,74.8
2018-12-21T10:48:15.888Z,74.6
2018-12-21T10:51:15.735Z,74.4
2018-12-21T10:54:15.714Z,74.3
2018-12-21T10:57:15.758Z,73.8
2018-12-21T11:00:15.566Z,73.9
2018-12-21T11:03:15.128Z,73.7
2018-12-21T11:06:15.843Z,73.3
2018-12-21T11:09:15.545Z,73.0
2018-12-21T11:12:15.182Z,73.1
2018-12-21T11:15:15.129Z,73.5
2018-12-21T11:18:15.851Z,72.5
2018-12-21T11:21:15.744Z,72.8
2018-12-21T11:24:15.845Z,73.1
2018-12-21T11:27:15.274Z,72.9
2018-12-21T11:30:15.276Z,72.8
2018-12-21T11:33:15.579Z,72.8
2018-12-21T11:36:15.461Z,72.8
2018-12-21T11:39:15.173Z,73.0
2018-12-21T11:42:15.226Z,72.6
2018-12-21T11:45:15.794Z,72.9
2018-12-21T11:48:15.556Z,72.4
2018-12-21T11:51:15.313Z,72.5
2018-12-21T11:54:15.247Z,72.3
2018-12-21T11:57:15.099Z,72.6
2018-12-21T12:00:15.872Z,72.6
2018-12-21T12:03:15.787Z,72.8
2018-12-21T12:06:15.403Z,72.4
2018-12-21T12:09:15.241Z,72.8
2018-12-21T12:12:15.169Z,72.7
2018-12-21T12:15:15.864Z,72.8
2018-12-21T12:18:15.463Z,72.9
2018-12-21T12:21:15.238Z,72.7
2018-12-21T12:24:15.819Z,72.7
2018-12-21T12:27:15.547Z,72.6
2018-12-21T12:30:15.315Z,72.6
2018-12-21T12:33:15.252Z,72.6
2018-12-21T12:36:15.312Z,72.6
2018-12-21T12:39:15.184Z,72.6
2018-12-21T12:42:15.226Z,72.7
2018-12-21T12:45:15.250Z,72.7
2018-12-21T12:48:15.468Z,72.5
2018-12-21T12:51:15.164Z,72.5
2018-12-21T12:54:15.893Z,72.8
2018-12-21T12:57:15.651Z,72.8
2018-12-21T13:00:15.307Z,72.6
2018-12-21T13:03:15.201Z,72.5
2018-12-21T13:06:15.967Z,72.4
2018-12-21T13:09:15.879Z,72.5
2018-12-21T13:12:15.723Z,72.3
2018-12-21T13:15:15.388Z,72.4
2018-12-21T13:18:15.791Z,72.4
2018-12-21T13:21:15.333Z,72.6
2018-12-21T13:24:15.278Z,72.4
2018-12-21T13:27:15.284Z,72.7
2018-12-21T13:30:15.320Z,72.7
2018-12-21T13:33:15.216Z,72.5
2018-12-21T13:36:15.831Z,72.6
2018-12-21T13:39:15.744Z,72.9
2018-12-21T13:42:15.606Z,72.9
2018-12-21T13:45:15.483Z,73.0
2018-12-21T13:48:15.335Z,73.2
2018-12-21T13:51:15.302Z,73.4
2018-12-21T13:54:15.894Z,73.4
2018-12-21T13:57:15.792Z,73.5
2018-12-21T14:00:15.459Z,73.5
2018-12-21T14:03:15.244Z,73.7
2018-12-21T14:06:15.197Z,73.9
2018-12-21T14:09:15.211Z,73.6
2018-12-21T14:12:15.755Z,73.4
2018-12-21T14:15:15.494Z,73.3
2018-12-21T14:18:15.355Z,73.7
2018-12-21T14:21:15.269Z,73.9
2018-12-21T14:24:15.261Z,73.9
2018-12-21T14:27:15.263Z,74.1
2018-12-21T14:30:16.098Z,74.2
2018-12-21T14:33:15.240Z,74.3
2018-12-21T14:36:15.849Z,74.2
2018-12-21T14:39:15.456Z,74.0
2018-12-21T14:42:15.273Z,73.8
2018-12-21T14:45:15.282Z,73.7
2018-12-21T14:48:15.262Z,73.9
2018-12-21T14:51:15.247Z,73.7
2018-12-21T14:54:15.762Z,73.6
2018-12-21T14:57:15.694Z,73.6
2018-12-21T15:00:15.519Z,73.5
2018-12-21T15:03:15.814Z,73.2
2018-12-21T15:06:15.527Z,72.9
2018-12-21T15:09:15.439Z,72.8
2018-12-21T15:12:15.406Z,72.6
2018-12-21T15:15:15.377Z,72.4
2018-12-21T15:18:15.312Z,72.4
2018-12-21T15:21:15.343Z,72.2
2018-12-21T15:24:15.399Z,72.0
2018-12-21T15:27:15.357Z,71.7
2018-12-21T15:30:15.316Z,71.8
2018-12-21T15:33:15.344Z,71.7
2018-12-21T15:36:15.276Z,71.2
2018-12-21T15:39:15.334Z,71.4
2018-12-21T15:42:15.283Z,70.9
2018-12-21T15:45:15.360Z,71.0
2018-12-21T15:48:15.401Z,70.9
2018-12-21T15:51:15.926Z,70.7
2018-12-21T15:54:15.913Z,70.9
2018-12-21T15:57:15.678Z,70.7
2018-12-21T16:00:16.727Z,70.8
2018-12-21T16:03:15.762Z,70.8
2018-12-21T16:06:15.517Z,71.1
2018-12-21T16:09:15.396Z,71.0
2018-12-21T16:12:15.349Z,70.8
2018-12-21T16:15:15.898Z,70.7
2018-12-21T16:18:15.683Z,71.0
2018-12-21T16:21:15.574Z,70.7
2018-12-21T16:24:15.376Z,70.9
2018-12-21T16:27:15.374Z,71.0
2018-12-21T16:30:16.379Z,70.7
2018-12-21T16:33:15.477Z,70.6
2018-12-21T16:36:15.311Z,70.6
2018-12-21T16:39:15.365Z,70.3
2018-12-21T16:42:15.302Z,70.4
2018-12-21T16:45:20.085Z,69.9
2018-12-21T16:48:15.348Z,70.0
2018-12-21T16:51:15.495Z,69.8
2018-12-21T16:54:15.482Z,69.9
2018-12-21T16:57:15.438Z,69.7
2018-12-21T17:00:15.360Z,69.7
2018-12-21T17:03:15.746Z,69.3
2018-12-21T17:06:15.927Z,69.7
2018-12-21T17:09:15.876Z,69.7
2018-12-21T17:12:16.769Z,69.6
2018-12-21T17:15:15.534Z,69.4
2018-12-21T17:18:15.515Z,69.3
2018-12-21T17:21:15.693Z,69.2
2018-12-21T17:24:15.409Z,69.8
2018-12-21T17:27:15.419Z,69.6
2018-12-21T17:30:15.440Z,69.5
2018-12-21T17:33:15.462Z,69.3
2018-12-21T17:36:15.432Z,69.5
2018-12-21T17:39:15.401Z,69.6
2018-12-21T17:42:15.216Z,69.5
2018-12-21T17:45:15.960Z,69.2
2018-12-21T17:48:15.691Z,69.5
2018-12-21T17:51:15.572Z,68.9
2018-12-21T17:54:15.447Z,68.8
2018-12-21T17:57:15.683Z,68.7
2018-12-21T18:00:15.407Z,68.8
2018-12-21T18:03:15.572Z,68.6
2018-12-21T18:06:15.243Z,68.6
2018-12-21T18:09:15.406Z,68.5
2018-12-21T18:12:15.528Z,68.7
2018-12-21T18:15:15.448Z,68.3
2018-12-21T18:18:15.456Z,68.4
2018-12-21T18:21:15.509Z,68.2
2018-12-21T18:24:15.411Z,68.0
2018-12-21T18:27:15.396Z,68.7
2018-12-21T18:30:15.922Z,67.9
2018-12-21T18:33:15.556Z,68.2
2018-12-21T18:36:15.589Z,67.9
2018-12-21T18:39:15.421Z,67.2
2018-12-21T18:42:15.484Z,67.5
2018-12-21T18:45:15.665Z,67.5
2018-12-21T18:48:15.659Z,67.8
2018-12-21T18:51:15.572Z,66.6
2018-12-21T18:54:15.558Z,66.7
2018-12-21T18:57:15.874Z,67.1
2018-12-21T19:00:15.587Z,67.1
2018-12-21T19:03:15.449Z,67.4
2018-12-21T19:06:15.601Z,67.2
2018-12-21T19:09:15.656Z,67.1
2018-12-21T19:12:15.650Z,66.7
2018-12-21T19:15:15.578Z,66.3
2018-12-21T19:18:15.554Z,66.6
2018-12-21T19:21:15.456Z,66.7
2018-12-21T19:24:15.477Z,66.4
2018-12-21T19:27:15.526Z,66.6
2018-12-21T19:30:15.464Z,65.8
2018-12-21T19:33:15.458Z,66.4
2018-12-21T19:36:15.785Z,65.9
2018-12-21T19:39:15.530Z,65.4
2018-12-21T19:42:15.489Z,65.8
2018-12-21T19:45:15.538Z,65.7
2018-12-21T19:48:15.565Z,65.7
2018-12-21T19:51:15.516Z,66.3
2018-12-21T19:54:15.565Z,66.3
2018-12-21T19:57:15.505Z,66.0
2018-12-21T20:00:15.628Z,66.0
2018-12-21T20:03:15.592Z,66.6
2018-12-21T20:06:15.554Z,66.0
2018-12-21T20:09:15.486Z,65.4
2018-12-21T20:12:15.550Z,65.5
2018-12-21T20:15:15.574Z,65.0
2018-12-21T20:18:15.813Z,64.8
2018-12-21T20:21:15.742Z,65.6
2018-12-21T20:24:15.750Z,65.3
2018-12-21T20:27:15.931Z,65.1
2018-12-21T20:30:15.673Z,64.3
2018-12-21T20:33:15.503Z,65.2
2018-12-21T20:36:15.527Z,64.6
2018-12-21T20:39:15.508Z,64.7
2018-12-21T20:42:15.350Z,64.5
2018-12-21T20:45:15.364Z,64.8
2018-12-21T20:48:15.566Z,64.9
2018-12-21T20:51:15.659Z,64.6
2018-12-21T20:54:16.738Z,65.4
2018-12-21T20:57:21.808Z,64.4
2018-12-21T21:00:15.366Z,64.5
2018-12-21T21:03:15.608Z,64.7
2018-12-21T21:06:15.636Z,64.7
2018-12-21T21:09:15.756Z,65.0
2018-12-21T21:12:15.589Z,65.3
2018-12-21T21:15:15.630Z,64.6
2018-12-21T21:18:15.588Z,65.1
2018-12-21T21:21:15.600Z,65.7
2018-12-21T21:24:15.539Z,64.6
2018-12-21T21:27:15.676Z,64.5
2018-12-21T21:30:15.413Z,64.5
2018-12-21T21:33:15.620Z,64.7
2018-12-21T21:36:15.770Z,64.4
2018-12-21T21:39:15.644Z,64.4
2018-12-21T21:42:15.629Z,64.8
2018-12-21T21:45:15.811Z,64.8
2018-12-21T21:48:15.709Z,65.0
2018-12-21T21:51:15.756Z,64.5
2018-12-21T21:54:15.597Z,64.9
2018-12-21T21:57:15.708Z,64.7
2018-12-21T22:00:15.788Z,64.4
2018-12-21T22:03:15.429Z,64.8
2018-12-21T22:06:15.466Z,64.8
2018-12-21T22:09:15.707Z,64.6
2018-12-21T22:12:15.618Z,64.3
2018-12-21T22:15:15.590Z,64.4
2018-12-21T22:18:15.647Z,64.5
2018-12-21T22:21:15.632Z,65.2
2018-12-21T22:24:15.479Z,64.7
2018-12-21T22:27:15.570Z,64.4
2018-12-21T22:30:15.597Z,65.2
2018-12-21T22:33:15.648Z,64.8
2018-12-21T22:36:15.467Z,64.3
2018-12-21T22:39:15.642Z,65.0
2018-12-21T22:42:15.667Z,65.1
2018-12-21T22:45:15.619Z,65.5
2018-12-21T22:48:15.449Z,65.7
2018-12-21T22:51:15.642Z,65.2
2018-12-21T22:54:15.476Z,65.4
2018-12-21T22:57:15.490Z,65.0
2018-12-21T23:00:15.312Z,64.4
2018-12-21T23:03:15.712Z,65.1
2018-12-21T23:06:15.465Z,64.3
2018-12-21T23:09:15.506Z,64.3
2018-12-21T23:12:15.705Z,64.2
2018-12-21T23:15:15.659Z,64.2
2018-12-21T23:18:15.675Z,63.3
2018-12-21T23:21:15.668Z,62.9
2018-12-21T23:24:17.569Z,62.7
2018-12-21T23:27:15.673Z,63.3
2018-12-21T23:30:15.498Z,63.1
2018-12-21T23:33:15.301Z,61.8
2018-12-21T23:36:15.313Z,62.0
2018-12-21T23:39:15.322Z,62.8
2018-12-21T23:42:15.173Z,62.9
2018-12-21T23:45:15.341Z,62.4
2018-12-21T23:48:15.454Z,62.9
2018-12-21T23:51:15.521Z,63.3
2018-12-21T23:54:15.523Z,63.1
2018-12-21T23:57:15.529Z,62.4
